Time;durP1;ratioP1;P1;durP2;ratioP2;P2;SDS_P1;SDS_P2;PMS_P1;PMS_P2;Temp;Humidity;BMP_temperature;BMP_pressure;BME280_temperature;BME280_humidity;BME280_pressure;Samples;Min_cycle;Max_cycle;Signal;HPM_P1;HPM_P2
2022/05/26 00:01:34;;;;;;;6.05;3.05;;;;;;;13.76;92.19;100597.56;4485175;31;20187;-64
2022/05/26 00:04:03;;;;;;;3.55;2.45;;;;;;;13.73;92.83;100608.22;4485525;31;20421;-64
2022/05/26 00:06:31;;;;;;;4.10;2.80;;;;;;;13.66;92.74;100601.31;4485505;31;20100;-64
2022/05/26 00:08:59;;;;;;;3.05;2.75;;;;;;;13.56;94.91;100602.41;4485584;31;20072;-65
2022/05/26 00:11:35;;;;;;;8.38;3.03;;;;;;;13.53;93.93;100611.28;4485334;31;20116;-64
2022/05/26 00:14:07;;;;;;;3.25;2.67;;;;;;;13.45;94.65;100601.75;4485154;31;20190;-64
2022/05/26 00:16:44;;;;;;;3.70;3.03;;;;;;;13.37;95.14;100604.56;4485303;31;20454;-64
2022/05/26 00:19:13;;;;;;;3.30;2.92;;;;;;;13.40;94.66;100612.44;4485378;31;20111;-64
2022/05/26 00:21:41;;;;;;;4.60;2.65;;;;;;;13.38;94.53;100596.56;4485124;31;20104;-64
2022/05/26 00:24:09;;;;;;;4.35;3.00;;;;;;;13.27;95.51;100595.91;4485271;31;20113;-64
2022/05/26 00:26:36;;;;;;;3.37;3.08;;;;;;;13.27;95.65;100601.19;4485146;31;20170;-64
2022/05/26 00:29:04;;;;;;;3.58;3.30;;;;;;;13.20;96.36;100602.19;4485228;31;20092;-64
2022/05/26 00:31:31;;;;;;;3.62;3.30;;;;;;;13.16;96.26;100616.37;4485088;31;20096;-64
2022/05/26 00:33:58;;;;;;;3.22;3.00;;;;;;;13.09;96.50;100605.03;4485075;31;20549;-64
2022/05/26 00:36:38;;;;;;;5.22;3.28;;;;;;;13.13;95.75;100609.38;4485017;31;20171;-64
2022/05/26 00:39:17;;;;;;;4.53;3.20;;;;;;;13.03;97.09;100607.78;4485031;31;20500;-64
2022/05/26 00:41:55;;;;;;;3.47;3.17;;;;;;;13.06;96.08;100607.75;4484944;31;20441;-64
2022/05/26 00:44:23;;;;;;;3.62;3.33;;;;;;;12.95;97.11;100612.34;4485066;31;20123;-64
2022/05/26 00:47:02;;;;;;;3.50;3.20;;;;;;;12.91;97.67;100602.75;4484955;31;20156;-64
2022/05/26 00:50:13;;;;;;;4.28;3.20;;;;;;;12.98;96.62;100607.03;4484868;31;20413;-64
2022/05/26 00:52:50;;;;;;;3.83;3.53;;;;;;;12.96;96.38;100614.09;4468175;31;20083;-64
2022/05/26 00:55:26;;;;;;;3.62;3.33;;;;;;;12.94;96.42;100625.62;4485020;31;20151;-64
2022/05/26 00:58:01;;;;;;;3.87;3.53;;;;;;;12.87;97.04;100623.06;4485113;31;20494;-64
2022/05/26 01:00:33;;;;;;;3.85;3.55;;;;;;;12.86;96.95;100629.28;4484705;31;20110;-64
2022/05/26 01:03:07;;;;;;;3.45;3.22;;;;;;;12.85;97.32;100638.09;4469957;31;20102;-64
2022/05/26 01:05:53;;;;;;;4.20;3.62;;;;;;;12.89;96.33;100628.31;4484594;31;20526;-65
2022/05/26 01:08:39;;;;;;;9.13;3.70;;;;;;;12.85;96.82;100627.50;4484628;31;20167;-64
2022/05/26 01:11:07;;;;;;;4.80;3.72;;;;;;;12.80;97.33;100636.44;4484574;31;20146;-65
2022/05/26 01:13:49;;;;;;;4.55;4.15;;;;;;;12.80;96.48;100644.37;4486460;31;20107;-64
2022/05/26 01:16:44;;;;;;;5.15;3.80;;;;;;;12.81;95.94;100628.47;4486861;31;20483;-65
2022/05/26 01:19:36;;;;;;;3.87;3.62;;;;;;;12.87;95.55;100636.31;4486693;31;20440;-65
2022/05/26 01:22:15;;;;;;;4.85;3.60;;;;;;;12.77;95.79;100634.72;4486596;31;20080;-64
2022/05/26 01:25:12;;;;;;;7.85;3.55;;;;;;;12.83;95.00;100645.19;4486794;31;20480;-65
2022/05/26 01:27:44;;;;;;;3.70;3.40;;;;;;;12.76;95.10;100647.97;4456449;31;20168;-65
2022/05/26 01:30:26;;;;;;;4.47;4.05;;;;;;;12.53;97.72;100649.19;4486803;31;20421;-65
2022/05/26 01:33:28;;;;;;;3.95;3.65;;;;;;;12.47;97.67;100654.56;4486791;31;20450;-64
2022/05/26 01:36:11;;;;;;;5.22;3.60;;;;;;;12.47;96.96;100636.06;4486601;31;20749;-64
2022/05/26 01:38:49;;;;;;;5.85;3.83;;;;;;;12.52;97.29;100644.81;4486810;31;20091;-65
2022/05/26 01:41:50;;;;;;;6.05;3.50;;;;;;;12.43;97.53;100645.81;4486469;31;20167;-64
2022/05/26 01:44:30;;;;;;;5.12;3.08;;;;;;;12.37;97.23;100651.22;4486845;31;20144;-65
2022/05/26 01:47:08;;;;;;;3.95;3.53;;;;;;;12.40;97.17;100664.37;4486519;31;20521;-65
2022/05/26 01:49:35;;;;;;;3.72;3.53;;;;;;;12.33;97.43;100661.81;4486551;31;20084;-65
2022/05/26 01:52:05;;;;;;;3.83;3.55;;;;;;;12.23;99.21;100663.75;4486680;31;20459;-65
2022/05/26 01:54:43;;;;;;;4.30;3.40;;;;;;;12.28;98.28;100671.59;4486437;31;20083;-65
2022/05/26 01:57:22;;;;;;;4.05;3.62;;;;;;;12.42;96.45;100669.62;4486838;31;20068;-65
2022/05/26 01:59:53;;;;;;;5.80;4.00;;;;;;;12.35;97.76;100663.56;4486397;31;20088;-65
2022/05/26 02:02:29;;;;;;;4.72;4.07;;;;;;;12.45;96.73;100677.53;4486301;31;20500;-64
2022/05/26 02:05:03;;;;;;;5.35;4.28;;;;;;;12.47;96.87;100682.78;4486540;31;20477;-65
2022/05/26 02:07:36;;;;;;;4.05;3.75;;;;;;;12.39;97.33;100678.47;4486438;31;20079;-64
2022/05/26 02:10:15;;;;;;;5.43;4.43;;;;;;;12.43;96.84;100679.28;4471745;31;20497;-65
2022/05/26 02:12:53;;;;;;;12.80;5.18;;;;;;;12.54;95.96;100680.00;4486429;31;20119;-64
2022/05/26 02:15:26;;;;;;;6.43;4.80;;;;;;;12.44;96.97;100681.94;4486340;31;20252;-65
2022/05/26 02:18:05;;;;;;;7.62;5.00;;;;;;;12.32;98.20;100686.50;4486362;31;20091;-65
2022/05/26 02:20:47;;;;;;;4.72;4.28;;;;;;;12.30;98.05;100690.97;4486297;31;20435;-65
2022/05/26 02:23:24;;;;;;;5.60;4.43;;;;;;;12.27;98.82;100681.31;4486076;31;20426;-64
2022/05/26 02:25:51;;;;;;;7.22;5.28;;;;;;;12.33;98.13;100683.88;4486583;31;20488;-64
2022/05/26 02:28:18;;;;;;;6.10;5.50;;;;;;;12.31;98.76;100687.41;4486213;31;20100;-64
2022/05/26 02:30:47;;;;;;;7.18;5.80;;;;;;;12.35;98.56;100687.34;4486150;31;20092;-65
2022/05/26 02:33:17;;;;;;;5.93;5.40;;;;;;;12.29;99.28;100679.50;4486314;31;20143;-64
2022/05/26 02:35:47;;;;;;;5.47;4.97;;;;;;;12.24;99.68;100681.34;4486281;31;20175;-64
2022/05/26 02:38:19;;;;;;;6.10;5.35;;;;;;;12.25;98.99;100684.84;4486471;31;20502;-64
2022/05/26 02:40:46;;;;;;;5.55;4.97;;;;;;;12.28;98.92;100683.03;4486145;31;20432;-65
2022/05/26 02:43:18;;;;;;;6.50;5.78;;;;;;;12.29;98.26;100690.06;4486087;31;20552;-64
2022/05/26 02:45:51;;;;;;;6.78;6.18;;;;;;;12.31;98.30;100698.84;4486303;31;20076;-65
2022/05/26 02:48:21;;;;;;;7.57;5.87;;;;;;;12.25;99.17;100696.28;4486161;31;20122;-65
2022/05/26 02:51:25;;;;;;;6.30;5.70;;;;;;;12.19;99.73;100701.66;4486193;31;20087;-64
2022/05/26 02:54:05;;;;;;;7.18;5.90;;;;;;;12.27;99.03;100701.56;4473320;31;20108;-64
2022/05/26 02:57:10;;;;;;;8.60;6.35;;;;;;;12.22;99.56;100696.31;4486034;31;20084;-65
2022/05/26 02:59:49;;;;;;;10.52;6.90;;;;;;;12.13;100.00;100699.97;4471679;31;20100;-64
2022/05/26 03:02:25;;;;;;;7.12;5.50;;;;;;;12.11;100.00;100698.25;4485938;31;20179;-64
2022/05/26 03:05:05;;;;;;;6.82;6.18;;;;;;;12.14;100.00;100706.12;4486104;31;20134;-64
2022/05/26 03:07:35;;;;;;;7.25;6.55;;;;;;;12.20;99.61;100711.34;4485999;31;20098;-64
2022/05/26 03:10:04;;;;;;;11.35;7.03;;;;;;;12.18;99.94;100705.19;4486021;31;20140;-64
2022/05/26 03:12:34;;;;;;;7.53;6.80;;;;;;;12.19;99.67;100718.41;4486079;31;20150;-65
2022/05/26 03:15:05;;;;;;;9.40;6.15;;;;;;;12.16;100.00;100707.00;4485990;31;20507;-64
2022/05/26 03:17:33;;;;;;;7.35;6.75;;;;;;;12.18;99.75;100714.00;4485989;31;20143;-64
2022/05/26 03:20:00;;;;;;;6.45;5.82;;;;;;;12.22;99.05;100716.59;4486241;31;20076;-64
2022/05/26 03:22:27;;;;;;;6.72;6.03;;;;;;;12.28;98.55;100722.69;4485835;31;20116;-64
2022/05/26 03:24:54;;;;;;;6.47;5.95;;;;;;;12.34;97.28;100732.31;4485953;31;20266;-64
2022/05/26 03:27:22;;;;;;;7.12;5.85;;;;;;;12.35;97.51;100726.97;4486073;31;20503;-64
2022/05/26 03:29:49;;;;;;;6.65;6.00;;;;;;;12.38;97.17;100720.78;4485855;31;20087;-64
2022/05/26 03:32:19;;;;;;;9.45;5.20;;;;;;;12.40;96.83;100730.44;4485982;31;20529;-64
2022/05/26 03:43:04;;;;;;;4.82;4.32;;;;;;;12.63;93.96;100729.25;4485786;31;20115;-64
2022/05/26 03:45:34;;;;;;;8.55;5.30;;;;;;;12.69;93.44;100734.44;4485777;31;20099;-64
2022/05/26 03:48:03;;;;;;;6.95;5.32;;;;;;;12.80;92.52;100740.44;4488939;31;20458;-64
2022/05/26 03:50:30;;;;;;;6.12;5.00;;;;;;;12.87;92.04;100739.44;4501570;31;20114;-64
2022/05/26 03:52:58;;;;;;;9.25;4.80;;;;;;;12.97;91.53;100734.00;4499074;31;20123;-64
2022/05/26 03:55:25;;;;;;;6.35;5.65;;;;;;;12.97;91.96;100729.59;4502056;31;20099;-64
2022/05/26 03:57:53;;;;;;;9.48;5.43;;;;;;;13.02;91.63;100734.81;4487567;31;20163;-64
2022/05/26 04:00:23;;;;;;;6.12;5.25;;;;;;;13.07;91.78;100740.88;4501985;31;20153;-64
2022/05/26 04:02:50;;;;;;;6.30;5.75;;;;;;;13.13;91.81;100743.44;4502196;31;20134;-64
2022/05/26 04:05:18;;;;;;;5.87;5.37;;;;;;;13.17;91.67;100745.13;4501943;31;20547;-64
2022/05/26 04:07:46;;;;;;;5.62;5.12;;;;;;;13.23;91.46;100747.69;4501008;31;20084;-65
2022/05/26 04:10:13;;;;;;;5.12;4.72;;;;;;;13.32;89.69;100763.44;4501135;31;20119;-64
2022/05/26 04:12:42;;;;;;;5.20;4.70;;;;;;;13.42;88.44;100750.03;4501902;31;20797;-65
2022/05/26 04:15:11;;;;;;;4.82;4.35;;;;;;;13.51;88.29;100757.81;4498875;31;20907;-64
2022/05/26 04:17:38;;;;;;;4.90;4.37;;;;;;;13.66;86.93;100757.53;4501080;31;20075;-65
2022/05/26 04:20:09;;;;;;;5.53;3.95;;;;;;;13.73;86.08;100766.25;4497239;31;20507;-65
2022/05/26 04:22:36;;;;;;;4.15;3.75;;;;;;;13.82;85.89;100766.94;4492788;31;20100;-65
2022/05/26 04:25:04;;;;;;;4.03;3.60;;;;;;;13.91;84.00;100765.00;4499058;31;20103;-65
2022/05/26 04:27:32;;;;;;;3.53;3.22;;;;;;;14.01;83.26;100770.09;4501492;31;20168;-65
2022/05/26 04:30:02;;;;;;;6.95;3.35;;;;;;;14.11;83.06;100768.16;4500883;31;20095;-65
2022/05/26 04:32:29;;;;;;;3.12;2.83;;;;;;;14.22;81.15;100776.75;4500930;31;20111;-65
2022/05/26 04:34:56;;;;;;;4.47;2.83;;;;;;;14.37;79.18;100775.53;4500896;31;20100;-65
2022/05/26 04:37:25;;;;;;;2.75;2.45;;;;;;;14.47;78.57;100771.78;4500827;31;20109;-65
2022/05/26 04:39:58;;;;;;;3.65;2.70;;;;;;;14.58;77.36;100775.09;4500961;31;20780;-65
2022/05/26 04:42:26;;;;;;;3.05;2.37;;;;;;;14.63;76.82;100772.37;4500584;31;20142;-65
2022/05/26 04:44:54;;;;;;;2.15;2.05;;;;;;;14.71;76.85;100785.47;4500566;31;20604;-65
2022/05/26 04:47:21;;;;;;;2.62;2.10;;;;;;;14.81;75.60;100792.31;4502455;31;20076;-65
2022/05/26 04:49:48;;;;;;;2.20;2.00;;;;;;;14.89;74.87;100778.84;4502590;31;20510;-65
2022/05/26 04:52:20;;;;;;;1.92;1.80;;;;;;;14.93;73.57;100784.06;4502133;31;20110;-65
2022/05/26 04:54:48;;;;;;;3.65;2.28;;;;;;;15.01;73.86;100789.16;4502564;31;20131;-65
2022/05/26 04:57:17;;;;;;;4.28;2.47;;;;;;;15.11;74.96;100782.75;4502665;31;20087;-65
2022/05/26 04:59:45;;;;;;;1.98;1.87;;;;;;;15.21;74.62;100797.53;4502713;31;20163;-65
2022/05/26 05:02:15;;;;;;;2.33;2.00;;;;;;;15.25;73.35;100799.19;4502451;31;20096;-65
2022/05/26 05:04:44;;;;;;;2.20;1.87;;;;;;;15.32;72.89;100809.69;4502397;31;20124;-65
2022/05/26 05:07:11;;;;;;;1.65;1.50;;;;;;;15.38;73.47;100815.72;4502331;31;20110;-65
2022/05/26 05:09:39;;;;;;;3.90;1.67;;;;;;;15.47;71.27;100814.59;4501861;31;20605;-65
2022/05/26 05:12:10;;;;;;;1.90;1.67;;;;;;;15.56;71.02;100813.50;4502361;31;20130;-65
2022/05/26 05:14:47;;;;;;;2.83;1.40;;;;;;;15.67;71.00;100808.81;4498702;31;20195;-65
2022/05/26 05:17:16;;;;;;;;;;;;;;;15.73;70.36;100824.59;4488272;31;20076;-65
2022/05/26 05:19:45;;;;;;;1.45;1.42;;;;;;;15.85;71.14;100818.09;4486923;31;19987;-65
2022/05/26 05:22:19;;;;;;;2.45;1.67;;;;;;;15.96;71.10;100830.16;4485561;31;20092;-65
2022/05/26 05:25:08;;;;;;;2.25;1.52;;;;;;;15.93;70.47;100832.91;4493515;31;20099;-65
2022/05/26 05:27:46;;;;;;;1.60;1.50;;;;;;;15.90;70.45;100834.75;4487800;31;20076;-65
2022/05/26 05:30:19;;;;;;;3.53;1.75;;;;;;;15.90;71.31;100834.75;4488640;31;20481;-65
2022/05/26 05:32:59;;;;;;;1.58;1.48;;;;;;;15.99;71.13;100840.72;4503160;31;20212;-65
2022/05/26 05:35:34;;;;;;;5.00;1.90;;;;;;;16.07;70.13;100843.16;4503195;31;20121;-65
2022/05/26 05:38:02;;;;;;;1.60;1.35;;;;;;;16.13;70.61;100852.78;4492170;31;20114;-65
2022/05/26 05:40:30;;;;;;;2.70;1.30;;;;;;;16.22;70.08;100866.69;4491547;31;20088;-65
2022/05/26 05:43:00;;;;;;;2.12;1.70;;;;;;;16.17;69.85;100867.72;4493880;31;20503;-65
2022/05/26 05:45:27;;;;;;;4.65;1.40;;;;;;;16.37;69.68;100868.03;4501131;31;20091;-65
2022/05/26 05:47:55;;;;;;;1.40;1.40;;;;;;;16.46;69.91;100866.91;4487398;31;20095;-65
2022/05/26 05:50:22;;;;;;;1.15;1.15;;;;;;;16.72;69.48;100872.34;4501357;31;20480;-65
2022/05/26 05:52:49;;;;;;;1.92;1.23;;;;;;;16.75;68.41;100871.44;4502321;31;20168;-65
2022/05/26 05:55:17;;;;;;;2.85;1.40;;;;;;;16.76;67.18;100870.50;4502184;31;20167;-65
2022/05/26 05:57:44;;;;;;;1.42;1.33;;;;;;;16.75;66.70;100860.78;4494669;31;20130;-65
2022/05/26 06:00:12;;;;;;;1.75;1.00;;;;;;;16.84;66.99;100868.47;4495400;31;20715;-65
2022/05/26 06:02:39;;;;;;;1.55;1.20;;;;;;;16.95;66.24;100869.03;4500011;31;20166;-65
2022/05/26 06:05:07;;;;;;;1.23;1.20;;;;;;;17.04;65.41;100867.87;4494009;31;20095;-65
2022/05/26 06:07:38;;;;;;;1.25;1.15;;;;;;;17.15;64.79;100873.75;4496242;31;20084;-65
2022/05/26 06:10:08;;;;;;;1.20;1.20;;;;;;;17.25;64.33;100876.12;4493964;31;20096;-65
2022/05/26 06:12:36;;;;;;;1.90;0.90;;;;;;;17.39;63.86;100876.56;4486764;31;20111;-65
2022/05/26 06:15:04;;;;;;;9.70;3.80;;;;;;;17.40;63.35;100881.81;4486584;31;20099;-65
2022/05/26 06:17:31;;;;;;;1.92;1.00;;;;;;;17.49;64.45;100887.75;4486801;31;20166;-65
2022/05/26 06:19:59;;;;;;;4.45;1.10;;;;;;;17.55;62.92;100887.56;4486642;31;20096;-65
2022/05/26 06:22:26;;;;;;;0.77;0.77;;;;;;;17.65;63.65;100886.34;4485988;31;20088;-66
2022/05/26 06:24:53;;;;;;;0.95;0.95;;;;;;;17.73;63.62;100899.41;4486839;31;20121;-64
2022/05/26 06:30:11;;;;;;;1.03;1.00;;;;;;;17.81;64.11;100905.38;4498857;31;20778;-65
2022/05/26 06:38:27;;;;;;;0.77;0.77;;;;;;;18.23;64.16;100919.06;4496431;31;20158;-65
2022/05/26 06:40:54;;;;;;;3.58;1.00;;;;;;;18.42;64.58;100919.28;4500646;31;20167;-64
2022/05/26 06:43:21;;;;;;;1.15;0.90;;;;;;;18.47;63.99;100911.97;4486766;31;20119;-65
2022/05/26 06:45:49;;;;;;;3.70;0.90;;;;;;;18.68;64.64;100920.12;4489698;31;20170;-64
2022/05/26 06:48:16;;;;;;;1.60;1.50;;;;;;;18.62;63.88;100915.88;4502415;31;20080;-64
2022/05/26 06:50:43;;;;;;;2.60;1.67;;;;;;;18.68;65.66;100926.34;4502451;31;20105;-64
2022/05/26 06:53:11;;;;;;;4.00;1.83;;;;;;;18.71;64.86;100922.69;4502321;31;20122;-64
2022/05/26 06:55:38;;;;;;;1.75;1.60;;;;;;;18.68;66.45;100915.66;4502659;31;20100;-64
2022/05/26 06:58:05;;;;;;;1.70;1.60;;;;;;;18.87;65.73;100908.75;4502383;31;20134;-64
2022/05/26 07:00:32;;;;;;;2.40;1.50;;;;;;;18.79;65.83;100912.63;4494190;31;20158;-64
2022/05/26 07:03:00;;;;;;;1.98;1.52;;;;;;;18.82;65.29;100904.50;4493644;31;20087;-64
2022/05/26 07:05:27;;;;;;;1.50;1.33;;;;;;;18.81;64.83;100905.44;4502300;31;20129;-64
2022/05/26 07:07:54;;;;;;;2.70;1.60;;;;;;;18.99;65.25;100904.75;4498183;31;20085;-64
2022/05/26 07:10:21;;;;;;;2.10;1.60;;;;;;;19.05;64.14;100909.84;4472050;31;20091;-64
2022/05/26 07:12:49;;;;;;;2.10;1.12;;;;;;;19.12;64.23;100905.16;4486346;31;20555;-65
2022/05/26 07:15:16;;;;;;;2.87;1.60;;;;;;;19.38;65.45;100906.78;4486385;31;20124;-64
2022/05/26 07:17:45;;;;;;;1.23;1.23;;;;;;;19.39;63.39;100908.50;4486447;31;20084;-64
2022/05/26 07:20:13;;;;;;;2.67;1.33;;;;;;;19.45;63.98;100921.63;4486424;31;20088;-64
2022/05/26 07:22:40;;;;;;;3.45;1.55;;;;;;;19.75;62.10;100916.88;4486610;31;20687;-65
2022/05/26 07:25:08;;;;;;;1.20;1.15;;;;;;;19.72;61.69;100925.03;4486659;31;20156;-65
2022/05/26 07:27:36;;;;;;;5.43;1.60;;;;;;;19.77;60.61;100920.34;4486482;31;20144;-65
2022/05/26 07:30:05;;;;;;;15.85;3.35;;;;;;;19.80;61.43;100924.72;4486687;31;20096;-65
2022/05/26 07:32:32;;;;;;;2.50;1.48;;;;;;;19.92;60.80;100934.00;4486348;31;20107;-64
2022/05/26 07:34:59;;;;;;;8.43;1.55;;;;;;;19.78;59.44;100934.59;4486366;31;20168;-64
2022/05/26 07:42:58;;;;;;;4.43;1.40;;;;;;;20.45;60.22;100931.69;4471099;31;20111;-64
2022/05/26 07:45:25;;;;;;;4.10;1.85;;;;;;;20.38;57.65;100938.25;4486607;31;20151;-64
2022/05/26 07:47:52;;;;;;;1.65;1.48;;;;;;;20.26;59.69;100937.00;4501659;31;20688;-64
2022/05/26 07:50:20;;;;;;;2.28;1.52;;;;;;;20.30;59.28;100951.13;4501735;31;20118;-64
2022/05/26 07:52:49;;;;;;;2.05;1.45;;;;;;;20.17;59.08;100957.91;4501216;31;20126;-65
2022/05/26 07:55:20;;;;;;;1.40;1.30;;;;;;;20.14;59.42;100950.91;4500061;31;20138;-65
2022/05/26 07:57:56;;;;;;;2.35;1.20;;;;;;;20.29;59.36;100946.72;4493488;31;20080;-65
2022/05/26 08:00:24;;;;;;;12.48;1.77;;;;;;;20.47;59.62;100950.38;4500815;31;20455;-65
2022/05/26 08:02:51;;;;;;;3.42;1.40;;;;;;;20.75;59.37;100942.03;4500364;31;20095;-64
2022/05/26 08:05:18;;;;;;;5.03;1.58;;;;;;;20.66;58.24;100951.31;4501079;31;20118;-64
2022/05/26 08:07:46;;;;;;;5.97;1.20;;;;;;;20.60;58.13;100953.41;4494926;31;20134;-66
2022/05/26 08:10:15;;;;;;;6.18;1.77;;;;;;;20.77;58.33;100941.00;4484549;31;20164;-65
2022/05/26 08:12:43;;;;;;;2.33;1.48;;;;;;;20.93;58.45;100948.34;4470551;31;20099;-65
2022/05/26 08:15:11;;;;;;;3.42;1.33;;;;;;;20.87;57.64;100946.81;4499262;31;20450;-65
2022/05/26 08:17:39;;;;;;;2.45;1.20;;;;;;;20.94;58.10;100948.28;4500938;31;20152;-65
2022/05/26 08:20:08;;;;;;;3.72;1.40;;;;;;;21.24;56.76;100945.13;4501088;31;20117;-66
2022/05/26 08:22:35;;;;;;;3.35;1.37;;;;;;;21.20;55.12;100944.41;4500890;31;20773;-65
2022/05/26 08:25:03;;;;;;;1.45;1.20;;;;;;;21.12;56.11;100940.31;4500986;31;20126;-65
2022/05/26 08:27:30;;;;;;;1.42;1.30;;;;;;;21.37;55.07;100951.66;4500635;31;20188;-65
2022/05/26 08:29:59;;;;;;;2.05;0.90;;;;;;;21.53;55.54;100946.44;4500915;31;20115;-65
2022/05/26 08:32:26;;;;;;;3.80;1.33;;;;;;;21.56;53.53;100938.25;4500451;31;20191;-65
2022/05/26 08:35:03;;;;;;;0.95;0.88;;;;;;;21.66;54.22;100935.97;4500900;31;20206;-65
2022/05/26 08:37:31;;;;;;;3.10;1.33;;;;;;;21.96;53.52;100949.69;4496095;31;20087;-65
2022/05/26 08:39:58;;;;;;;1.10;1.00;;;;;;;22.03;52.22;100948.41;4488800;31;20143;-65
2022/05/26 08:42:31;;;;;;;3.25;0.93;;;;;;;21.91;52.79;100946.38;4485072;31;20471;-65
2022/05/26 08:45:07;;;;;;;2.28;0.98;;;;;;;22.17;53.21;100953.13;4485177;31;20118;-65
2022/05/26 08:47:39;;;;;;;1.75;1.02;;;;;;;22.14;51.93;100943.41;4484855;31;20107;-65
2022/05/26 08:50:14;;;;;;;2.53;0.90;;;;;;;22.09;51.37;100941.87;4489546;31;20791;-65
2022/05/26 08:53:00;;;;;;;7.00;1.40;;;;;;;22.07;51.45;100954.50;4499158;31;20776;-65
2022/05/26 08:55:34;;;;;;;4.30;1.20;;;;;;;22.04;51.34;100946.59;4487589;31;20168;-65
2022/05/26 08:58:13;;;;;;;1.58;1.00;;;;;;;21.92;51.50;100942.72;4491072;31;20114;-65
2022/05/26 09:00:43;;;;;;;4.32;0.98;;;;;;;22.27;49.80;100943.66;4495751;31;20135;-65
2022/05/26 09:03:22;;;;;;;2.92;1.00;;;;;;;22.19;48.95;100954.78;4495484;31;20096;-65
2022/05/26 09:06:13;;;;;;;2.12;1.23;;;;;;;22.32;49.20;100949.63;4485239;31;20159;-65
2022/05/26 09:14:25;;;;;;;3.97;1.20;;;;;;;22.85;47.45;100966.56;4483842;31;20092;-64
2022/05/26 09:17:02;;;;;;;9.30;1.02;;;;;;;22.56;44.69;100955.56;4484385;31;20250;-64
2022/05/26 09:19:50;;;;;;;4.43;0.85;;;;;;;22.56;44.71;100952.00;4486555;31;20088;-65
2022/05/26 09:22:41;;;;;;;2.05;0.90;;;;;;;23.01;45.10;100958.59;4495161;31;20104;-65
2022/05/26 09:25:29;;;;;;;2.65;0.93;;;;;;;22.95;44.16;100948.16;4495985;31;20751;-65
2022/05/26 09:27:57;;;;;;;3.20;0.82;;;;;;;23.45;44.26;100961.47;4490347;31;20107;-65
2022/05/26 09:30:27;;;;;;;4.68;0.80;;;;;;;23.49;42.53;100954.97;4500206;31;20091;-65
2022/05/26 09:32:55;;;;;;;2.00;0.88;;;;;;;23.44;41.28;100953.50;4497078;31;20111;-65
2022/05/26 09:35:28;;;;;;;2.83;0.93;;;;;;;23.31;42.40;100956.00;4502543;31;20091;-65
2022/05/26 09:37:58;;;;;;;0.70;0.60;;;;;;;23.36;42.77;100951.25;4496835;31;20810;-65
2022/05/26 09:40:31;;;;;;;1.52;0.60;;;;;;;23.40;37.26;100938.50;4498046;31;20195;-64
2022/05/26 09:42:59;;;;;;;2.08;1.00;;;;;;;23.21;38.30;100957.47;4487022;31;20198;-65
2022/05/26 09:45:44;;;;;;;6.60;0.80;;;;;;;23.46;41.18;100944.38;4487080;31;20076;-65
2022/05/26 09:48:29;;;;;;;3.60;0.70;;;;;;;23.61;41.02;100953.44;4486647;31;20148;-65
2022/05/26 09:51:27;;;;;;;1.80;0.90;;;;;;;23.58;41.17;100940.16;4496308;31;20127;-65
2022/05/26 09:53:55;;;;;;;4.07;1.05;;;;;;;23.73;42.71;100936.59;4501541;31;20088;-65
2022/05/26 09:56:32;;;;;;;3.03;1.10;;;;;;;24.46;42.97;100939.47;4501412;31;20122;-65
2022/05/26 09:58:59;;;;;;;;;;;;;;;24.30;41.82;100944.88;4502781;31;20126;-65
2022/05/26 10:01:26;;;;;;;3.40;0.88;;;;;;;24.53;41.92;100945.34;4502623;31;19979;-65
2022/05/26 10:04:06;;;;;;;1.00;0.80;;;;;;;24.01;42.50;100940.38;4502676;31;20158;-65
2022/05/26 10:06:42;;;;;;;1.00;0.73;;;;;;;24.71;40.48;100943.34;4502401;31;20084;-65
2022/05/26 10:09:36;;;;;;;2.22;0.82;;;;;;;24.64;39.31;100942.84;4501796;31;20143;-65
2022/05/26 10:12:09;;;;;;;6.40;0.80;;;;;;;24.56;38.90;100961.34;4502853;31;20076;-65
2022/05/26 10:14:36;;;;;;;1.40;0.60;;;;;;;24.48;38.66;100958.22;4481649;31;20119;-65
2022/05/26 10:17:10;;;;;;;1.17;0.60;;;;;;;24.84;33.78;100959.59;4497217;31;20104;-65
2022/05/26 10:20:08;;;;;;;0.60;0.50;;;;;;;24.94;35.83;100939.19;4488999;31;20100;-65
2022/05/26 10:22:55;;;;;;;2.33;0.70;;;;;;;25.11;34.39;100940.88;4494296;31;20123;-65
2022/05/26 10:25:32;;;;;;;7.00;0.85;;;;;;;24.88;34.45;100940.47;4502097;31;20084;-65
2022/05/26 10:28:27;;;;;;;2.53;0.68;;;;;;;25.17;33.81;100949.44;4483223;31;20108;-65
2022/05/26 10:30:54;;;;;;;7.78;0.50;;;;;;;25.26;33.77;100935.34;4498932;31;20164;-65
2022/05/26 10:33:51;;;;;;;4.97;1.25;;;;;;;25.35;34.23;100941.13;4502013;31;20117;-65
2022/05/26 10:36:40;;;;;;;0.88;0.57;;;;;;;24.63;35.63;100941.13;4487180;31;20130;-65
2022/05/26 10:39:30;;;;;;;1.33;0.43;;;;;;;25.03;32.79;100949.41;4486213;31;20142;-65
2022/05/26 10:42:02;;;;;;;3.15;0.62;;;;;;;26.03;32.01;100930.31;4486801;31;20096;-66
2022/05/26 10:44:45;;;;;;;1.25;0.70;;;;;;;26.36;31.49;100929.84;4486351;31;20414;-66
2022/05/26 10:47:34;;;;;;;1.00;0.60;;;;;;;25.18;33.94;100932.28;4486703;31;20451;-65
2022/05/26 10:50:01;;;;;;;1.67;0.70;;;;;;;25.73;33.19;100936.78;4490291;31;20157;-64
2022/05/26 10:52:40;;;;;;;2.78;0.62;;;;;;;25.98;33.04;100935.16;4502420;31;20147;-65
2022/05/26 10:55:17;;;;;;;0.40;0.40;;;;;;;26.33;32.60;100938.16;4502658;31;20156;-64
2022/05/26 10:58:10;;;;;;;4.30;0.75;;;;;;;25.47;32.85;100926.81;4495571;31;20155;-65
2022/05/26 11:00:37;;;;;;;3.60;0.62;;;;;;;25.09;34.35;100922.06;4491323;31;20127;-64
2022/05/26 11:03:19;;;;;;;0.65;0.52;;;;;;;25.65;32.77;100936.41;4489257;31;20151;-65
2022/05/26 11:05:53;;;;;;;2.65;0.55;;;;;;;25.97;31.71;100947.81;4495384;31;20107;-65
2022/05/26 11:08:28;;;;;;;1.55;0.60;;;;;;;26.33;31.67;100930.06;4494942;31;20122;-65
2022/05/26 11:11:02;;;;;;;1.75;0.60;;;;;;;26.88;31.31;100928.03;4491210;31;20497;-65
2022/05/26 11:13:56;;;;;;;2.50;0.75;;;;;;;26.89;30.88;100945.97;4486303;31;20096;-64
2022/05/26 11:19:24;;;;;;;3.95;1.00;;;;;;;26.18;33.02;100929.28;4501244;31;20087;-64
2022/05/26 11:21:52;;;;;;;0.50;0.50;;;;;;;26.41;33.08;100906.06;4487856;31;20092;-64
2022/05/26 11:24:23;;;;;;;1.48;0.60;;;;;;;26.28;33.12;100912.41;4493246;31;20119;-64
2022/05/26 11:27:05;;;;;;;0.50;0.50;;;;;;;26.26;33.67;100915.25;4508651;31;20084;-64
2022/05/26 11:29:56;;;;;;;0.68;0.60;;;;;;;27.28;31.21;100909.81;4510325;31;20091;-64
2022/05/26 11:38:32;;;;;;;6.45;0.77;;;;;;;28.70;29.55;100906.19;4501058;31;20102;-64
2022/05/26 11:41:07;;;;;;;4.75;0.68;;;;;;;29.92;27.10;100903.41;4502042;31;20091;-64
2022/05/26 11:43:34;;;;;;;1.35;0.80;;;;;;;28.93;28.13;100908.91;4501834;31;20137;-64
2022/05/26 11:46:01;;;;;;;1.37;0.50;;;;;;;27.82;30.64;100897.72;4501389;31;20096;-64
2022/05/26 11:48:31;;;;;;;3.35;0.70;;;;;;;28.82;29.21;100894.34;4501357;31;20507;-64
2022/05/26 11:51:23;;;;;;;5.97;0.68;;;;;;;30.40;27.13;100896.66;4496881;31;20574;-64
2022/05/26 11:53:50;;;;;;;1.15;0.60;;;;;;;30.38;27.74;100887.75;4498372;31;20087;-64
2022/05/26 11:56:23;;;;;;;2.47;0.52;;;;;;;29.75;27.20;100901.25;4500931;31;20509;-64
2022/05/26 11:59:18;;;;;;;2.92;0.70;;;;;;;29.84;27.11;100900.50;4500349;31;20440;-64
2022/05/26 12:02:07;;;;;;;1.37;0.50;;;;;;;29.67;27.93;100887.47;4485906;31;20689;-65
2022/05/26 12:04:41;;;;;;;1.58;0.62;;;;;;;31.40;26.42;100880.47;4500156;31;20187;-65
2022/05/26 12:07:17;;;;;;;1.23;0.65;;;;;;;30.45;26.37;100891.66;4467380;31;20577;-65
2022/05/26 12:09:49;;;;;;;;;;;;;;;30.02;26.91;100885.34;4492174;31;20151;-65
2022/05/26 12:12:17;;;;;;;1.65;0.60;;;;;;;28.62;29.19;100877.94;4496036;31;160604;-65
2022/05/26 12:15:13;;;;;;;6.18;0.60;;;;;;;30.51;26.46;100879.38;4500929;31;20118;-66
2022/05/26 12:17:44;;;;;;;1.90;0.60;;;;;;;30.85;25.97;100858.22;4501016;31;20163;-66
2022/05/26 12:20:11;;;;;;;1.48;0.50;;;;;;;29.39;27.50;100865.31;4500489;31;20166;-66
2022/05/26 12:22:41;;;;;;;1.00;0.43;;;;;;;28.96;27.45;100852.56;4499968;31;20113;-66
2022/05/26 12:25:29;;;;;;;2.62;0.52;;;;;;;28.96;28.35;100857.13;4500010;31;20084;-65
2022/05/26 12:27:59;;;;;;;1.70;0.40;;;;;;;27.19;30.69;100858.22;4484984;31;20108;-65
2022/05/26 12:30:32;;;;;;;2.65;0.43;;;;;;;27.59;30.50;100854.22;4485431;31;20160;-65
2022/05/26 12:33:20;;;;;;;19.35;2.00;;;;;;;27.04;31.19;100850.22;4471140;31;20095;-65